Time;durP1;ratioP1;P1;durP2;ratioP2;P2;SDS_P1;SDS_P2;PMS_P1;PMS_P2;Temp;Humidity;BMP_temperature;BMP_pressure;BME280_temperature;BME280_humidity;BME280_pressure;Samples;Min_cycle;Max_cycle;Signal;HPM_P1;HPM_P2
2021/01/28 00:00:31;;;;;;;45.13;19.83;;;7.90;99.40;;;;;;5112894;27;20031;-41
2021/01/28 00:02:58;;;;;;;46.83;21.67;;;7.90;99.40;;;;;;5126042;27;20046;-41
2021/01/28 00:05:27;;;;;;;43.97;20.42;;;7.90;99.40;;;;;;5113871;27;20355;-41
2021/01/28 00:07:52;;;;;;;44.78;21.35;;;7.90;99.40;;;;;;5125420;27;20137;-43
2021/01/28 00:10:19;;;;;;;40.53;19.88;;;7.90;99.40;;;;;;5116138;27;20127;-41
2021/01/28 00:12:46;;;;;;;44.58;19.15;;;7.90;99.40;;;;;;5122855;27;20133;-42
2021/01/28 00:15:13;;;;;;;47.38;22.75;;;7.90;99.40;;;;;;5117906;27;20426;-41
2021/01/28 00:17:38;;;;;;;43.22;20.83;;;7.80;99.30;;;;;;5120663;27;20020;-42
2021/01/28 00:20:25;;;;;;;46.80;21.35;;;7.80;99.30;;;;;;5121175;27;20027;-42
2021/01/28 00:22:51;;;;;;;45.28;20.40;;;7.80;99.40;;;;;;5120778;27;20027;-41
2021/01/28 00:25:19;;;;;;;39.65;19.88;;;7.80;99.40;;;;;;5120671;27;20023;-40
2021/01/28 00:27:46;;;;;;;41.38;19.88;;;7.80;99.40;;;;;;5118577;27;20091;-41
2021/01/28 00:30:16;;;;;;;42.83;19.90;;;7.90;99.40;;;;;;5120198;27;20103;-41
2021/01/28 00:32:42;;;;;;;49.90;19.27;;;7.80;99.30;;;;;;5116305;27;20051;-42
2021/01/28 00:35:08;;;;;;;44.63;18.67;;;7.80;99.30;;;;;;5124665;27;20057;-42
2021/01/28 00:37:34;;;;;;;41.20;18.33;;;7.80;99.30;;;;;;5113758;27;20027;-41
2021/01/28 00:40:00;;;;;;;44.78;19.88;;;7.90;99.40;;;;;;5123892;27;20141;-41
2021/01/28 00:42:25;;;;;;;44.72;19.67;;;7.90;99.30;;;;;;5114460;27;20034;-41
2021/01/28 00:44:51;;;;;;;46.65;19.02;;;7.90;99.30;;;;;;5125147;27;20035;-42
2021/01/28 00:47:16;;;;;;;43.88;18.65;;;7.90;99.30;;;;;;5112901;27;20434;-42
2021/01/28 00:49:47;;;;;;;43.45;19.08;;;7.90;99.30;;;;;;5124707;27;20039;-41
2021/01/28 00:52:13;;;;;;;45.63;18.58;;;7.80;99.30;;;;;;5112866;27;20050;-41
2021/01/28 00:54:38;;;;;;;43.78;17.77;;;7.80;99.30;;;;;;5125078;27;20398;-42
2021/01/28 00:57:04;;;;;;;44.92;18.38;;;7.80;99.30;;;;;;5113217;27;20493;-41
2021/01/28 00:59:30;;;;;;;39.70;18.63;;;7.80;99.30;;;;;;5124261;27;20095;-41
2021/01/28 01:01:55;;;;;;;42.90;18.50;;;7.80;99.30;;;;;;5116255;27;20092;-42
2021/01/28 01:04:20;;;;;;;45.95;19.55;;;7.80;99.30;;;;;;5121470;27;20030;-41
2021/01/28 01:06:46;;;;;;;47.22;19.23;;;7.80;99.30;;;;;;5117969;27;20065;-41
2021/01/28 01:09:12;;;;;;;43.00;18.52;;;7.80;99.30;;;;;;5119379;27;20027;-40
2021/01/28 01:11:37;;;;;;;52.13;18.23;;;7.80;99.30;;;;;;5120613;27;20411;-41
2021/01/28 01:14:03;;;;;;;49.92;18.25;;;7.80;99.30;;;;;;5115790;27;20027;-43
2021/01/28 01:16:28;;;;;;;45.50;19.33;;;7.80;99.30;;;;;;5123794;27;20028;-41
2021/01/28 01:18:54;;;;;;;43.45;17.92;;;7.80;99.30;;;;;;5113316;28;20019;-42
2021/01/28 01:21:19;;;;;;;42.53;17.73;;;7.80;99.30;;;;;;5123932;28;20084;-41
2021/01/28 01:23:45;;;;;;;42.60;18.00;;;7.80;99.30;;;;;;5113430;28;20074;-42
2021/01/28 01:26:10;;;;;;;52.38;18.15;;;7.90;99.30;;;;;;5125410;28;20063;-42
2021/01/28 01:28:36;;;;;;;46.58;18.15;;;7.80;99.20;;;;;;5112034;28;20652;-41
2021/01/28 01:31:02;;;;;;;44.80;18.30;;;7.90;99.20;;;;;;5125574;28;20027;-41
2021/01/28 01:33:30;;;;;;;44.03;18.15;;;7.80;99.30;;;;;;5111379;28;20024;-42
2021/01/28 01:35:56;;;;;;;47.95;18.70;;;7.90;99.30;;;;;;5124860;28;20084;-43
2021/01/28 01:38:21;;;;;;;43.13;17.90;;;7.90;99.30;;;;;;5113912;28;20028;-41
2021/01/28 01:40:57;;;;;;;56.47;19.98;;;7.90;99.30;;;;;;5122707;28;20110;-39
2021/01/28 01:43:24;;;;;;;47.15;18.08;;;7.90;99.30;;;;;;5115430;28;20055;-42
2021/01/28 01:46:00;;;;;;;47.50;17.33;;;7.90;99.30;;;;;;5122191;28;20171;-41
2021/01/28 01:48:31;;;;;;;43.38;18.23;;;7.90;99.30;;;;;;5115582;28;20082;-40
2021/01/28 01:51:23;;;;;;;46.83;17.60;;;7.90;99.30;;;;;;5121529;28;20045;-40
2021/01/28 01:54:14;;;;;;;49.20;17.23;;;7.90;99.20;;;;;;5113512;28;20031;-40
2021/01/28 01:56:50;;;;;;;43.50;18.08;;;7.90;99.20;;;;;;5104123;28;20289;-40
2021/01/28 01:59:31;;;;;;;48.47;17.95;;;7.90;99.20;;;;;;5116952;28;20181;-41
2021/01/28 02:02:01;;;;;;;48.33;17.92;;;7.90;99.20;;;;;;5103791;28;20040;-40
2021/01/28 02:04:28;;;;;;;46.30;16.50;;;7.90;99.20;;;;;;5116603;28;20038;-40
2021/01/28 02:06:59;;;;;;;53.10;18.48;;;7.90;99.20;;;;;;5104077;28;20050;-41
2021/01/28 02:09:25;;;;;;;42.00;17.52;;;7.90;99.20;;;;;;5115430;28;20035;-40
2021/01/28 02:11:50;;;;;;;47.60;17.90;;;7.90;99.20;;;;;;5105275;28;20097;-40
2021/01/28 02:14:19;;;;;;;47.45;17.23;;;7.90;99.20;;;;;;5112183;28;20118;-37
2021/01/28 02:16:51;;;;;;;43.08;18.02;;;7.90;99.20;;;;;;5107305;28;20379;-39
2021/01/28 02:19:45;;;;;;;38.63;17.67;;;7.90;99.20;;;;;;5111159;28;20030;-40
2021/01/28 02:22:10;;;;;;;;;;;7.90;99.20;;;;;;5105564;28;20042;-40
2021/01/28 02:24:50;;;;;;;43.53;15.55;;;7.90;99.20;;;;;;5112783;27;19907;-39
2021/01/28 02:27:17;;;;;;;46.08;16.98;;;7.90;99.10;;;;;;5110542;27;20081;-39
2021/01/28 02:29:44;;;;;;;46.53;17.40;;;7.90;99.20;;;;;;5114328;27;20050;-36
2021/01/28 02:32:10;;;;;;;41.00;17.88;;;7.90;99.20;;;;;;5112375;27;20035;-40
2021/01/28 02:34:36;;;;;;;52.03;16.90;;;7.90;99.20;;;;;;5112949;27;20019;-40
2021/01/28 02:37:11;;;;;;;56.92;18.98;;;7.90;99.20;;;;;;5114273;27;20031;-39
2021/01/28 02:39:36;;;;;;;60.83;17.90;;;7.90;99.20;;;;;;5110764;27;20032;-40
2021/01/28 02:42:26;;;;;;;37.38;17.90;;;7.90;99.10;;;;;;5116486;27;20408;-41
2021/01/28 02:44:51;;;;;;;44.53;18.15;;;7.90;99.10;;;;;;5111717;27;20373;-40
2021/01/28 02:47:17;;;;;;;54.25;18.77;;;7.90;99.10;;;;;;5115724;27;20032;-40
2021/01/28 02:49:43;;;;;;;48.25;19.42;;;7.90;99.10;;;;;;5108794;27;20030;-40
2021/01/28 02:52:09;;;;;;;46.33;18.83;;;7.90;99.10;;;;;;5118271;27;20034;-39
2021/01/28 02:54:45;;;;;;;45.70;18.85;;;8.00;99.10;;;;;;5108314;27;20102;-39
2021/01/28 02:57:11;;;;;;;49.47;18.58;;;8.00;99.10;;;;;;5118534;27;20439;-40
2021/01/28 02:59:37;;;;;;;87.43;18.23;;;8.00;99.10;;;;;;5108230;27;20123;-41
2021/01/28 03:02:11;;;;;;;48.38;19.50;;;8.00;99.00;;;;;;5118855;27;20031;-40
2021/01/28 03:04:38;;;;;;;39.53;17.30;;;7.90;99.00;;;;;;5107568;27;20141;-40
2021/01/28 03:07:08;;;;;;;107.03;19.15;;;7.90;99.00;;;;;;5119221;27;20082;-40
2021/01/28 03:09:34;;;;;;;78.35;19.23;;;8.00;99.00;;;;;;5107105;28;20240;-40
2021/01/28 03:12:00;;;;;;;44.90;18.10;;;8.00;99.00;;;;;;5119262;27;20521;-39
2021/01/28 03:14:26;;;;;;;125.57;17.98;;;7.90;99.00;;;;;;5107262;28;20221;-39
2021/01/28 03:16:51;;;;;;;55.20;17.30;;;8.00;99.00;;;;;;5119230;27;20210;-39
2021/01/28 03:19:18;;;;;;;171.35;20.90;;;7.90;99.00;;;;;;5107018;28;20119;-40
2021/01/28 03:21:44;;;;;;;62.60;19.67;;;7.90;99.10;;;;;;5116891;27;20134;-40
2021/01/28 03:24:12;;;;;;;167.20;20.13;;;7.90;99.30;;;;;;5109837;27;20115;-40
2021/01/28 03:26:38;;;;;;;150.70;19.52;;;7.90;99.10;;;;;;5113869;27;20027;-41
2021/01/28 03:29:08;;;;;;;50.08;18.15;;;7.90;99.00;;;;;;5111635;27;20088;-42
2021/01/28 03:31:34;;;;;;;186.55;20.45;;;7.90;99.00;;;;;;5111930;27;20394;-41
2021/01/28 03:34:00;;;;;;;43.95;18.15;;;7.90;99.00;;;;;;5113690;27;20115;-40
2021/01/28 03:36:27;;;;;;;87.32;20.13;;;7.90;99.00;;;;;;5109124;27;20108;-41
2021/01/28 03:38:53;;;;;;;83.18;20.63;;;7.90;99.00;;;;;;5114953;27;20252;-38
2021/01/28 03:41:19;;;;;;;105.97;21.80;;;8.00;99.00;;;;;;5107796;27;20038;-40
2021/01/28 03:43:45;;;;;;;52.83;22.17;;;8.00;99.00;;;;;;5117425;27;20019;-41
2021/01/28 03:46:10;;;;;;;60.85;20.52;;;8.00;99.00;;;;;;5107201;27;20038;-41
2021/01/28 03:48:36;;;;;;;64.72;20.77;;;8.00;99.00;;;;;;5117781;27;20023;-41
2021/01/28 03:51:03;;;;;;;109.97;19.90;;;7.90;98.90;;;;;;5106136;28;20019;-40
2021/01/28 03:53:28;;;;;;;47.78;18.75;;;8.00;99.00;;;;;;5118066;27;20459;-40
2021/01/28 03:55:54;;;;;;;50.42;17.48;;;8.00;98.90;;;;;;5105901;28;20034;-40
2021/01/28 03:58:20;;;;;;;47.83;17.23;;;7.90;98.90;;;;;;5118926;27;20050;-41
2021/01/28 04:00:45;;;;;;;43.13;14.75;;;7.90;98.90;;;;;;5105886;28;20063;-40
2021/01/28 04:03:11;;;;;;;51.45;15.98;;;7.90;98.80;;;;;;5116746;27;20083;-40
2021/01/28 04:05:36;;;;;;;48.50;15.43;;;7.90;98.90;;;;;;5107521;27;20027;-41
2021/01/28 04:08:02;;;;;;;44.60;14.15;;;7.80;98.80;;;;;;5113493;27;20043;-41
2021/01/28 04:10:33;;;;;;;43.05;13.88;;;7.80;98.80;;;;;;5109829;27;20028;-41
2021/01/28 04:12:59;;;;;;;39.17;14.57;;;7.80;98.90;;;;;;5111360;27;20027;-41
2021/01/28 04:15:25;;;;;;;38.08;12.65;;;7.70;98.90;;;;;;5112139;27;20032;-40
2021/01/28 04:17:51;;;;;;;42.17;12.57;;;7.70;99.10;;;;;;5108911;27;20376;-39
2021/01/28 04:20:20;;;;;;;30.23;10.65;;;7.70;98.80;;;;;;5114947;27;20073;-40
2021/01/28 04:22:48;;;;;;;29.92;10.65;;;7.60;98.80;;;;;;5105982;27;20373;-40
2021/01/28 04:25:15;;;;;;;33.72;9.93;;;7.60;98.90;;;;;;5116410;27;20031;-38
2021/01/28 04:27:41;;;;;;;30.35;8.73;;;7.60;98.90;;;;;;5105658;27;20472;-39
2021/01/28 04:30:09;;;;;;;22.85;8.10;;;7.50;98.90;;;;;;5117331;27;20046;-40
2021/01/28 04:32:35;;;;;;;26.15;9.35;;;7.50;98.90;;;;;;5106084;27;20058;-40
2021/01/28 04:35:00;;;;;;;24.90;9.20;;;7.50;98.80;;;;;;5116430;27;20051;-39
2021/01/28 04:37:26;;;;;;;23.42;8.35;;;7.50;98.90;;;;;;5105185;28;20118;-40
2021/01/28 04:39:53;;;;;;;28.30;9.10;;;7.40;98.80;;;;;;5118066;27;20027;-41
2021/01/28 04:42:45;;;;;;;26.70;8.45;;;7.40;98.90;;;;;;5105690;28;20027;-40
2021/01/28 04:45:14;;;;;;;27.10;10.23;;;7.40;98.90;;;;;;5113003;27;20331;-40
2021/01/28 04:47:50;;;;;;;31.92;10.55;;;7.40;98.90;;;;;;5125233;27;20034;-39
2021/01/28 04:50:22;;;;;;;27.10;9.18;;;7.30;98.90;;;;;;5111924;27;20051;-40
2021/01/28 04:52:49;;;;;;;30.13;9.98;;;7.40;98.90;;;;;;5125205;27;20022;-41
2021/01/28 04:55:16;;;;;;;31.63;9.75;;;7.30;98.90;;;;;;5112133;27;20070;-40
2021/01/28 04:57:42;;;;;;;31.13;10.00;;;7.30;98.90;;;;;;5125058;27;20355;-40
2021/01/28 05:00:10;;;;;;;36.70;10.70;;;7.30;98.90;;;;;;5112503;27;20038;-40
2021/01/28 05:02:35;;;;;;;34.67;11.60;;;7.30;98.90;;;;;;5124246;27;20397;-41
2021/01/28 05:05:05;;;;;;;32.75;12.95;;;7.30;98.90;;;;;;5115965;27;20110;-40
2021/01/28 05:07:36;;;;;;;41.33;14.55;;;7.30;98.90;;;;;;5122045;27;20051;-40
2021/01/28 05:10:33;;;;;;;38.67;15.02;;;7.30;99.00;;;;;;5117551;27;20068;-40
2021/01/28 05:12:59;;;;;;;45.67;16.70;;;7.30;99.00;;;;;;5124627;27;20039;-41
2021/01/28 05:15:31;;;;;;;56.17;18.05;;;7.30;99.00;;;;;;5116084;27;20620;-40
2021/01/28 05:18:20;;;;;;;43.90;17.25;;;7.30;99.00;;;;;;5122996;27;20019;-40
2021/01/28 05:20:45;;;;;;;44.50;16.15;;;7.30;99.00;;;;;;5113960;27;20417;-41
2021/01/28 05:23:22;;;;;;;48.50;17.00;;;7.30;99.00;;;;;;5123527;27;20027;-40
2021/01/28 05:25:47;;;;;;;49.92;16.23;;;7.20;99.00;;;;;;5114705;27;20043;-39
2021/01/28 05:28:22;;;;;;;36.38;14.85;;;7.20;99.00;;;;;;5122633;28;20015;-40
2021/01/28 05:30:48;;;;;;;35.50;13.45;;;7.20;99.00;;;;;;5116506;28;20034;-38
2021/01/28 05:33:27;;;;;;;31.75;13.30;;;7.20;99.10;;;;;;5120500;28;20045;-40
2021/01/28 05:36:11;;;;;;;38.13;14.35;;;7.20;99.10;;;;;;5117124;28;20474;-39
2021/01/28 05:38:46;;;;;;;33.35;13.35;;;7.20;99.10;;;;;;5122156;28;20031;-41
2021/01/28 05:41:33;;;;;;;33.00;12.60;;;7.10;99.10;;;;;;5116572;28;20035;-39
2021/01/28 05:44:28;;;;;;;29.25;12.38;;;7.10;99.10;;;;;;5124090;28;20479;-38
2021/01/28 05:47:02;;;;;;;37.08;12.75;;;7.10;99.10;;;;;;5112006;28;20038;-40
2021/01/28 05:49:29;;;;;;;28.50;11.88;;;7.00;99.10;;;;;;5125290;28;20049;-41
2021/01/28 05:51:54;;;;;;;25.58;10.85;;;7.00;99.10;;;;;;5112754;28;20043;-42
2021/01/28 05:54:26;;;;;;;30.98;10.00;;;7.00;99.10;;;;;;5124476;28;20462;-42
2021/01/28 05:57:06;;;;;;;25.02;9.88;;;7.00;99.20;;;;;;5115031;28;20059;-40
2021/01/28 05:59:53;;;;;;;23.35;8.68;;;7.00;99.20;;;;;;5124127;27;20051;-40
2021/01/28 06:02:41;;;;;;;24.92;8.15;;;6.90;99.20;;;;;;5116875;27;20092;-40
2021/01/28 06:05:26;;;;;;;24.40;7.88;;;6.90;99.20;;;;;;5109216;28;20878;-40
2021/01/28 06:08:24;;;;;;;21.45;7.90;;;6.90;99.20;;;;;;5121146;27;20055;-40
2021/01/28 06:11:27;;;;;;;24.00;8.18;;;6.80;99.20;;;;;;5109721;28;20042;-40
2021/01/28 06:14:12;;;;;;;23.15;7.60;;;6.80;99.20;;;;;;5118722;27;20038;-40
2021/01/28 06:17:05;;;;;;;22.23;6.55;;;6.80;99.20;;;;;;5126604;27;20054;-40
2021/01/28 06:19:58;;;;;;;16.77;6.28;;;6.70;99.20;;;;;;5122401;27;20054;-41
2021/01/28 06:23:15;;;;;;;20.52;6.22;;;6.70;99.20;;;;;;5121379;27;20114;-40
2021/01/28 06:26:11;;;;;;;16.80;5.38;;;6.60;99.30;;;;;;5051456;28;20471;-41
2021/01/28 06:29:15;;;;;;;13.60;4.78;;;6.60;99.30;;;;;;5098079;27;20032;-40
2021/01/28 06:31:41;;;;;;;12.38;4.50;;;6.60;99.30;;;;;;5109230;27;20027;-40
2021/01/28 06:34:29;;;;;;;10.60;4.80;;;6.60;99.40;;;;;;5119873;27;20036;-40
2021/01/28 06:37:28;;;;;;;11.13;4.68;;;6.50;99.40;;;;;;5109151;27;20128;-41
2021/01/28 06:39:56;;;;;;;12.50;4.95;;;6.60;99.50;;;;;;5119216;27;20558;-40
2021/01/28 06:42:24;;;;;;;15.02;5.95;;;6.60;99.50;;;;;;5126891;27;20072;-41
2021/01/28 06:45:06;;;;;;;14.32;5.88;;;6.50;99.40;;;;;;5116765;27;20072;-42
2021/01/28 06:47:54;;;;;;;17.17;6.53;;;6.50;99.40;;;;;;5126752;27;20034;-41
2021/01/28 06:50:39;;;;;;;14.48;6.90;;;6.50;99.40;;;;;;5119538;27;20027;-42
2021/01/28 06:53:43;;;;;;;18.38;7.00;;;6.50;99.40;;;;;;5124577;27;20026;-40
2021/01/28 06:56:12;;;;;;;10.82;5.65;;;6.40;99.50;;;;;;5124347;27;20530;-41
2021/01/28 06:59:16;;;;;;;14.00;6.43;;;6.40;99.50;;;;;;5122068;27;20016;-39
2021/01/28 07:02:09;;;;;;;18.30;7.38;;;6.40;99.60;;;;;;5104984;28;20036;-40
2021/01/28 07:04:41;;;;;;;15.00;6.60;;;6.40;99.60;;;;;;5121426;27;20019;-42
2021/01/28 07:07:09;;;;;;;16.10;7.05;;;6.40;99.60;;;;;;5125445;27;20092;-46
2021/01/28 07:09:41;;;;;;;13.98;6.75;;;6.40;99.70;;;;;;5115513;27;20125;-39
2021/01/28 07:12:11;;;;;;;18.90;8.05;;;6.40;99.70;;;;;;5105787;28;20054;-40
2021/01/28 07:14:38;;;;;;;18.63;8.65;;;6.40;99.70;;;;;;5110954;27;20451;-39
2021/01/28 07:17:30;;;;;;;19.05;9.18;;;6.40;99.70;;;;;;5125570;27;20074;-40
2021/01/28 07:20:03;;;;;;;16.77;8.63;;;6.40;99.70;;;;;;5113844;27;20423;-40
2021/01/28 07:22:38;;;;;;;17.10;8.40;;;6.40;99.70;;;;;;5106019;28;20757;-41
2021/01/28 07:25:28;;;;;;;15.05;7.20;;;6.40;99.70;;;;;;5117698;27;20319;-40
2021/01/28 07:28:03;;;;;;;13.18;7.45;;;6.40;99.80;;;;;;5105890;28;20115;-40
2021/01/28 07:30:50;;;;;;;15.02;7.60;;;6.30;99.80;;;;;;5118683;27;20105;-40
2021/01/28 07:33:24;;;;;;;17.75;7.95;;;6.40;99.80;;;;;;5107471;28;20070;-41
2021/01/28 07:35:59;;;;;;;16.30;8.40;;;6.30;99.80;;;;;;5118114;27;20470;-40
2021/01/28 07:38:28;;;;;;;22.50;8.60;;;6.30;99.80;;;;;;5117234;27;20035;-42
2021/01/28 07:40:57;;;;;;;23.65;9.20;;;6.30;99.80;;;;;;5120200;27;20053;-42
2021/01/28 07:43:27;;;;;;;17.27;8.18;;;6.30;99.80;;;;;;5107197;28;20027;-41
2021/01/28 07:46:16;;;;;;;17.88;8.57;;;6.30;99.90;;;;;;5110480;27;20553;-40
2021/01/28 07:48:43;;;;;;;19.00;8.98;;;6.30;99.90;;;;;;5126731;27;20031;-39
2021/01/28 07:51:28;;;;;;;17.38;8.20;;;6.30;99.90;;;;;;5113839;27;20034;-41
2021/01/28 07:53:54;;;;;;;18.85;8.40;;;6.30;99.90;;;;;;5126424;27;20023;-40
2021/01/28 07:56:38;;;;;;;21.25;8.25;;;6.30;99.90;;;;;;5113669;27;20062;-39
2021/01/28 07:59:16;;;;;;;16.40;7.65;;;6.30;99.90;;;;;;5126826;27;20027;-40
2021/01/28 08:01:45;;;;;;;19.70;7.80;;;6.30;99.90;;;;;;5113507;27;20815;-41
2021/01/28 08:04:42;;;;;;;17.67;7.88;;;6.30;99.90;;;;;;5127279;27;20035;-39
2021/01/28 08:07:12;;;;;;;17.40;6.97;;;6.30;99.90;;;;;;5117015;27;20082;-38
2021/01/28 08:09:52;;;;;;;15.15;6.72;;;6.20;99.90;;;;;;5106300;28;20394;-41
2021/01/28 08:12:31;;;;;;;19.02;7.10;;;6.20;99.90;;;;;;5118455;27;20102;-40
2021/01/28 08:15:00;;;;;;;11.32;6.40;;;6.30;99.90;;;;;;5106004;27;20763;-41
2021/01/28 08:17:32;;;;;;;10.85;6.35;;;6.30;99.90;;;;;;5114667;27;20106;-39
2021/01/28 08:20:16;;;;;;;10.00;6.10;;;6.30;99.90;;;;;;5125970;27;20142;-40
2021/01/28 08:23:02;;;;;;;14.18;7.03;;;6.30;99.90;;;;;;5114521;27;20061;-40
2021/01/28 08:25:33;;;;;;;11.93;6.82;;;6.30;99.90;;;;;;5124317;27;20105;-40
2021/01/28 08:28:15;;;;;;;15.40;7.13;;;6.30;99.90;;;;;;5114005;27;20027;-40
2021/01/28 08:30:42;;;;;;;10.37;6.23;;;6.30;99.90;;;;;;5124272;27;20024;-40
2021/01/28 08:33:14;;;;;;;12.73;6.68;;;6.30;99.90;;;;;;5114954;27;20337;-40
2021/01/28 08:35:46;;;;;;;12.52;6.32;;;6.30;99.90;;;;;;5124671;27;20045;-40
2021/01/28 08:38:14;;;;;;;;;;;6.20;99.90;;;;;;5117757;27;20032;-40
2021/01/28 08:40:40;;;;;;;12.93;6.63;;;6.20;99.90;;;;;;5105368;28;19930;-40
2021/01/28 08:43:08;;;;;;;10.52;6.38;;;6.20;99.90;;;;;;5112672;27;20027;-40
2021/01/28 08:45:34;;;;;;;10.20;6.45;;;6.20;99.90;;;;;;5125663;27;20031;-40
2021/01/28 08:48:02;;;;;;;10.77;6.13;;;6.30;99.90;;;;;;5111977;27;20015;-40
2021/01/28 08:50:32;;;;;;;14.48;6.82;;;6.30;99.90;;;;;;5126124;27;20026;-41
2021/01/28 08:53:04;;;;;;;11.68;7.22;;;6.30;99.90;;;;;;5113099;27;20110;-39
2021/01/28 08:55:34;;;;;;;12.10;6.67;;;6.30;99.90;;;;;;5104349;28;20085;-40
2021/01/28 08:58:10;;;;;;;14.57;7.88;;;6.30;99.90;;;;;;5115578;27;20110;-40
2021/01/28 09:00:43;;;;;;;10.30;6.38;;;6.30;99.90;;;;;;5105708;28;20031;-39
2021/01/28 09:03:11;;;;;;;;;;;6.30;99.90;;;;;;5115750;27;20498;-40
2021/01/28 09:05:37;;;;;;;11.05;6.85;;;6.30;99.90;;;;;;5106386;28;19999;-40
2021/01/28 09:08:07;;;;;;;14.63;7.30;;;6.30;99.90;;;;;;5113288;27;20381;-39
2021/01/28 09:10:39;;;;;;;8.07;5.53;;;6.30;99.90;;;;;;5108004;27;20031;-40
2021/01/28 09:13:23;;;;;;;15.53;8.60;;;6.30;99.90;;;;;;5112318;27;20063;-41
2021/01/28 09:16:09;;;;;;;11.07;6.93;;;6.30;99.90;;;;;;5107470;27;20035;-40
2021/01/28 09:18:38;;;;;;;14.55;7.97;;;6.30;99.90;;;;;;5114749;27;20042;-40
2021/01/28 09:21:09;;;;;;;14.07;8.00;;;6.30;99.90;;;;;;5107392;27;20034;-40
2021/01/28 09:23:35;;;;;;;12.60;8.27;;;6.30;99.90;;;;;;5112687;27;20107;-40
2021/01/28 09:26:23;;;;;;;14.95;8.43;;;6.30;99.90;;;;;;5124680;27;20069;-41
2021/01/28 09:28:49;;;;;;;14.02;8.38;;;6.30;99.90;;;;;;5116040;27;20152;-40
2021/01/28 09:31:24;;;;;;;13.82;8.48;;;6.30;99.90;;;;;;5119026;28;20537;-40
2021/01/28 09:33:50;;;;;;;11.30;7.47;;;6.40;99.90;;;;;;5116583;28;20301;-41
2021/01/28 09:36:20;;;;;;;18.13;10.45;;;6.30;99.90;;;;;;5123712;27;20118;-40
2021/01/28 09:39:04;;;;;;;11.75;7.70;;;6.30;99.90;;;;;;5122887;27;20019;-40
2021/01/28 09:41:41;;;;;;;12.88;8.65;;;6.40;99.90;;;;;;5124754;27;20316;-40
2021/01/28 09:44:49;;;;;;;15.23;9.50;;;6.40;99.90;;;;;;5122102;27;20063;-38
2021/01/28 09:47:21;;;;;;;13.30;9.13;;;6.40;99.90;;;;;;5109435;28;20055;-38
2021/01/28 09:49:50;;;;;;;13.40;8.82;;;6.40;99.90;;;;;;5119621;27;20425;-39
2021/01/28 09:52:24;;;;;;;18.00;9.55;;;6.40;99.90;;;;;;5109326;27;20020;-41
2021/01/28 09:54:59;;;;;;;14.63;9.88;;;6.40;99.90;;;;;;5118564;27;20507;-42
2021/01/28 09:57:25;;;;;;;13.75;9.15;;;6.40;99.90;;;;;;5110233;27;20086;-41
2021/01/28 09:59:52;;;;;;;13.40;9.80;;;6.50;99.90;;;;;;5116857;27;20040;-42
2021/01/28 10:02:45;;;;;;;15.13;10.25;;;6.50;99.90;;;;;;5112611;27;20027;-38
2021/01/28 10:05:12;;;;;;;;;;;6.50;99.90;;;;;;5119646;27;20106;-38
2021/01/28 10:07:37;;;;;;;19.20;11.45;;;6.50;99.90;;;;;;5109943;27;19943;-40
2021/01/28 10:10:08;;;;;;;16.67;11.15;;;6.50;99.90;;;;;;5116056;27;20065;-41
2021/01/28 10:12:33;;;;;;;18.13;11.57;;;6.50;99.90;;;;;;5110826;27;20086;-41
2021/01/28 10:14:59;;;;;;;17.58;12.63;;;6.50;99.90;;;;;;5113713;27;20438;-39
2021/01/28 10:17:24;;;;;;;17.63;12.82;;;6.60;99.90;;;;;;5115757;27;20655;-40
2021/01/28 10:19:50;;;;;;;18.30;12.90;;;6.60;99.90;;;;;;5110010;27;20539;-39
2021/01/28 10:22:18;;;;;;;19.63;13.38;;;6.60;99.90;;;;;;5118271;27;20053;-41
2021/01/28 10:24:44;;;;;;;20.17;13.30;;;6.60;99.90;;;;;;5109032;27;20024;-41
2021/01/28 10:27:10;;;;;;;18.23;11.90;;;6.60;99.90;;;;;;5119120;27;20325;-41
2021/01/28 10:29:37;;;;;;;18.65;12.98;;;6.60;99.90;;;;;;5105147;27;20024;-41
2021/01/28 10:32:08;;;;;;;23.15;14.32;;;6.60;99.90;;;;;;5117064;27;20019;-41
2021/01/28 10:34:34;;;;;;;18.48;13.32;;;6.60;99.90;;;;;;5107397;27;20027;-40
2021/01/28 10:37:00;;;;;;;20.20;14.40;;;6.70;99.90;;;;;;5116399;27;20048;-41
2021/01/28 10:39:46;;;;;;;24.65;15.88;;;6.70;99.90;;;;;;5108861;27;20037;-41
2021/01/28 10:42:42;;;;;;;23.27;14.38;;;6.70;99.90;;;;;;5098714;27;20040;-41
2021/01/28 10:45:15;;;;;;;21.70;14.82;;;6.70;99.90;;;;;;5087473;27;20044;-41
2021/01/28 10:47:44;;;;;;;21.23;15.05;;;6.70;99.90;;;;;;5117288;27;20039;-41
2021/01/28 10:50:14;;;;;;;23.67;16.15;;;6.70;99.90;;;;;;5107804;27;20031;-40
2021/01/28 10:52:40;;;;;;;20.15;13.27;;;6.70;99.90;;;;;;5117330;27;20444;-40
2021/01/28 10:55:08;;;;;;;23.88;15.73;;;6.70;99.90;;;;;;5106058;28;20032;-38
2021/01/28 10:57:34;;;;;;;22.25;15.88;;;6.70;99.90;;;;;;5119732;27;20035;-41
2021/01/28 10:59:59;;;;;;;25.40;17.13;;;6.70;99.90;;;;;;5106667;28;20022;-39
2021/01/28 11:02:25;;;;;;;24.70;16.38;;;6.70;99.90;;;;;;5120621;27;20015;-40
2021/01/28 11:04:51;;;;;;;23.60;17.08;;;6.70;99.90;;;;;;5126654;27;20015;-40
2021/01/28 11:07:16;;;;;;;27.10;18.27;;;6.70;99.90;;;;;;5124402;27;20034;-39
2021/01/28 11:09:42;;;;;;;25.15;18.40;;;6.70;99.90;;;;;;5124054;27;20047;-41
2021/01/28 11:12:11;;;;;;;22.52;16.45;;;6.70;99.90;;;;;;5124576;27;20019;-42
2021/01/28 11:19:03;;;;;;;27.23;18.45;;;6.60;99.90;;;;;;4718195;28;20806;-42
2021/01/28 11:21:21;;;;;;;33.17;19.48;;;6.70;99.90;;;;;;4978638;28;20034;-42
2021/01/28 11:23:47;;;;;;;28.50;18.98;;;6.60;99.90;;;;;;5118630;27;20121;-40
2021/01/28 11:26:14;;;;;;;24.95;17.80;;;6.60;99.90;;;;;;5122912;27;20324;-42
2021/01/28 11:28:39;;;;;;;30.50;18.73;;;6.60;99.90;;;;;;5124558;27;20120;-42
2021/01/28 11:31:05;;;;;;;23.00;16.60;;;6.60;99.90;;;;;;5125247;27;20051;-42
2021/01/28 11:33:34;;;;;;;29.10;18.33;;;6.60;99.90;;;;;;5118863;27;20030;-42
2021/01/28 11:36:00;;;;;;;27.08;17.13;;;6.70;99.90;;;;;;5124819;27;20031;-39
2021/01/28 11:38:26;;;;;;;32.08;19.25;;;6.70;99.90;;;;;;5123402;27;20442;-43
2021/01/28 11:40:52;;;;;;;24.27;16.70;;;6.70;99.90;;;;;;5122468;27;20047;-41
2021/01/28 11:43:17;;;;;;;30.00;17.73;;;6.70;99.90;;;;;;5113852;27;20107;-41
2021/01/28 11:45:43;;;;;;;20.10;14.57;;;6.70;99.90;;;;;;5109654;27;20561;-37
2021/01/28 11:48:09;;;;;;;21.15;14.82;;;6.70;99.90;;;;;;5106923;27;20444;-39
2021/01/28 11:50:35;;;;;;;20.80;15.18;;;6.80;99.90;;;;;;5110756;27;20030;-39
2021/01/28 11:53:01;;;;;;;20.83;14.40;;;6.80;99.90;;;;;;5107092;27;20023;-41
2021/01/28 11:55:30;;;;;;;19.70;14.07;;;6.80;99.90;;;;;;5116951;27;20049;-41
2021/01/28 11:57:59;;;;;;;20.00;13.25;;;6.80;99.90;;;;;;5123812;27;20031;-41
2021/01/28 12:00:26;;;;;;;16.08;11.55;;;6.90;99.90;;;;;;5100993;27;20381;-41
2021/01/28 12:02:52;;;;;;;20.55;12.90;;;6.90;99.90;;;;;;5105527;27;20478;-40
2021/01/28 12:05:20;;;;;;;15.15;11.57;;;6.90;99.90;;;;;;5112934;27;20411;-41
2021/01/28 12:07:49;;;;;;;17.77;12.07;;;6.90;99.90;;;;;;5125196;27;20108;-40
2021/01/28 12:10:17;;;;;;;20.40;13.70;;;6.90;99.90;;;;;;5117373;27;20383;-41
2021/01/28 12:12:43;;;;;;;16.15;11.82;;;6.90;99.90;;;;;;5105138;28;20024;-40
2021/01/28 12:15:10;;;;;;;15.00;11.27;;;6.90;99.90;;;;;;5118814;27;20012;-41
2021/01/28 12:17:36;;;;;;;16.45;11.98;;;6.90;99.90;;;;;;5105495;28;20045;-40
2021/01/28 12:20:04;;;;;;;14.90;11.93;;;6.90;99.90;;;;;;5117959;27;20347;-40
2021/01/28 12:22:30;;;;;;;19.75;13.23;;;6.90;99.90;;;;;;5105997;28;20057;-41
2021/01/28 12:24:56;;;;;;;17.33;12.25;;;6.80;99.90;;;;;;5116277;27;20468;-41
2021/01/28 12:27:22;;;;;;;13.70;10.75;;;6.80;99.90;;;;;;5106855;27;20024;-42
2021/01/28 12:29:47;;;;;;;17.63;12.60;;;6.80;99.90;;;;;;5113650;27;20030;-41
2021/01/28 12:32:13;;;;;;;17.92;12.10;;;6.80;99.90;;;;;;5109853;27;20092;-41
2021/01/28 12:34:39;;;;;;;16.90;11.95;;;6.80;99.90;;;;;;5110012;27;20052;-41
2021/01/28 12:37:06;;;;;;;17.90;11.65;;;6.80;99.90;;;;;;5112632;27;20152;-38
2021/01/28 12:39:31;;;;;;;17.05;11.48;;;6.80;99.90;;;;;;5108576;27;20027;-39
2021/01/28 12:41:57;;;;;;;13.13;9.82;;;6.80;99.90;;;;;;5114469;27;20039;-41
2021/01/28 12:44:23;;;;;;;12.05;10.02;;;6.80;99.90;;;;;;5107005;27;20421;-40
2021/01/28 12:46:49;;;;;;;16.48;11.05;;;6.80;99.90;;;;;;5116568;27;20031;-41
2021/01/28 12:49:17;;;;;;;10.90;8.90;;;6.80;99.90;;;;;;5106371;27;20024;-40
2021/01/28 12:51:43;;;;;;;10.90;8.82;;;6.80;99.90;;;;;;5116506;27;20085;-39
2021/01/28 12:54:09;;;;;;;12.77;9.10;;;6.80;99.90;;;;;;5117168;27;20030;-43
2021/01/28 12:56:34;;;;;;;11.75;9.45;;;6.80;99.90;;;;;;5123612;27;20406;-39
2021/01/28 12:59:00;;;;;;;11.52;8.40;;;6.80;99.80;;;;;;5124773;27;20062;-39
2021/01/28 13:01:25;;;;;;;11.40;7.38;;;6.80;99.70;;;;;;5120458;27;20100;-42
2021/01/28 13:03:51;;;;;;;11.75;8.88;;;6.80;99.60;;;;;;5124034;27;20058;-43
2021/01/28 13:06:17;;;;;;;11.23;8.20;;;6.80;99.70;;;;;;5123696;27;20388;-41